sensor_id;sensor_type;location;lat;lon;timestamp;temperature;humidity
48994;DHT22;34804;49.214;12.276;2023-08-08T00:01:39;10.30;90.70
48994;DHT22;34804;49.214;12.276;2023-08-08T00:04:10;10.40;90.80
48994;DHT22;34804;49.214;12.276;2023-08-08T00:06:37;10.40;90.50
48994;DHT22;34804;49.214;12.276;2023-08-08T00:09:04;10.30;90.50
48994;DHT22;34804;49.214;12.276;2023-08-08T00:11:31;10.20;90.60
48994;DHT22;34804;49.214;12.276;2023-08-08T00:13:57;10.20;90.70
48994;DHT22;34804;49.214;12.276;2023-08-08T00:16:24;10.30;90.80
48994;DHT22;34804;49.214;12.276;2023-08-08T00:18:51;10.40;90.70
48994;DHT22;34804;49.214;12.276;2023-08-08T00:21:20;10.30;90.40
48994;DHT22;34804;49.214;12.276;2023-08-08T00:23:47;10.30;90.40
48994;DHT22;34804;49.214;12.276;2023-08-08T00:26:14;10.40;90.40
48994;DHT22;34804;49.214;12.276;2023-08-08T00:28:41;10.50;90.30
48994;DHT22;34804;49.214;12.276;2023-08-08T00:31:08;10.60;90.20
48994;DHT22;34804;49.214;12.276;2023-08-08T00:33:34;10.70;89.80
48994;DHT22;34804;49.214;12.276;2023-08-08T00:36:01;10.70;89.80
48994;DHT22;34804;49.214;12.276;2023-08-08T00:38:28;10.80;89.90
48994;DHT22;34804;49.214;12.276;2023-08-08T00:40:55;10.90;89.30
48994;DHT22;34804;49.214;12.276;2023-08-08T00:43:22;11.00;88.90
48994;DHT22;34804;49.214;12.276;2023-08-08T00:45:48;11.10;88.80
48994;DHT22;34804;49.214;12.276;2023-08-08T00:48:15;11.10;89.00
48994;DHT22;34804;49.214;12.276;2023-08-08T00:50:43;11.10;88.90
48994;DHT22;34804;49.214;12.276;2023-08-08T00:53:11;11.10;88.80
48994;DHT22;34804;49.214;12.276;2023-08-08T00:55:39;11.10;89.00
48994;DHT22;34804;49.214;12.276;2023-08-08T00:58:06;11.20;88.80
48994;DHT22;34804;49.214;12.276;2023-08-08T01:00:33;11.20;88.70
48994;DHT22;34804;49.214;12.276;2023-08-08T01:02:59;11.20;88.80
48994;DHT22;34804;49.214;12.276;2023-08-08T01:05:35;11.20;88.70
48994;DHT22;34804;49.214;12.276;2023-08-08T01:08:05;11.20;88.80
48994;DHT22;34804;49.214;12.276;2023-08-08T01:10:37;11.20;88.50
48994;DHT22;34804;49.214;12.276;2023-08-08T01:13:08;11.30;88.00
48994;DHT22;34804;49.214;12.276;2023-08-08T01:15:37;11.30;88.00
48994;DHT22;34804;49.214;12.276;2023-08-08T01:18:05;11.30;88.10
48994;DHT22;34804;49.214;12.276;2023-08-08T01:20:33;11.30;88.50
48994;DHT22;34804;49.214;12.276;2023-08-08T01:23:19;11.30;87.90
48994;DHT22;34804;49.214;12.276;2023-08-08T01:25:50;11.30;87.90
48994;DHT22;34804;49.214;12.276;2023-08-08T01:28:21;11.30;88.00
48994;DHT22;34804;49.214;12.276;2023-08-08T01:30:49;11.30;88.00
48994;DHT22;34804;49.214;12.276;2023-08-08T01:33:16;11.30;87.80
48994;DHT22;34804;49.214;12.276;2023-08-08T01:35:53;11.40;87.40
48994;DHT22;34804;49.214;12.276;2023-08-08T01:38:28;11.40;87.70
48994;DHT22;34804;49.214;12.276;2023-08-08T01:40:57;11.40;87.90
48994;DHT22;34804;49.214;12.276;2023-08-08T01:43:25;11.40;87.50
48994;DHT22;34804;49.214;12.276;2023-08-08T01:45:54;11.40;87.80
48994;DHT22;34804;49.214;12.276;2023-08-08T01:48:21;11.30;88.10
48994;DHT22;34804;49.214;12.276;2023-08-08T01:50:50;11.30;88.40
48994;DHT22;34804;49.214;12.276;2023-08-08T01:53:17;11.30;88.60
48994;DHT22;34804;49.214;12.276;2023-08-08T01:55:43;11.30;88.60
48994;DHT22;34804;49.214;12.276;2023-08-08T01:58:10;11.30;88.60
48994;DHT22;34804;49.214;12.276;2023-08-08T02:00:37;11.30;88.50
48994;DHT22;34804;49.214;12.276;2023-08-08T02:03:04;11.30;88.50
48994;DHT22;34804;49.214;12.276;2023-08-08T02:05:31;11.30;88.50
48994;DHT22;34804;49.214;12.276;2023-08-08T02:07:58;11.30;88.60
48994;DHT22;34804;49.214;12.276;2023-08-08T02:10:25;11.20;88.70
48994;DHT22;34804;49.214;12.276;2023-08-08T02:12:52;11.20;89.00
48994;DHT22;34804;49.214;12.276;2023-08-08T02:15:19;11.30;88.90
48994;DHT22;34804;49.214;12.276;2023-08-08T02:17:46;11.20;89.00
48994;DHT22;34804;49.214;12.276;2023-08-08T02:20:13;11.30;88.70
48994;DHT22;34804;49.214;12.276;2023-08-08T02:22:40;11.30;88.70
48994;DHT22;34804;49.214;12.276;2023-08-08T02:25:07;11.30;88.90
48994;DHT22;34804;49.214;12.276;2023-08-08T02:27:35;11.30;88.50
48994;DHT22;34804;49.214;12.276;2023-08-08T02:30:02;11.30;88.60
48994;DHT22;34804;49.214;12.276;2023-08-08T02:32:30;11.30;88.90
48994;DHT22;34804;49.214;12.276;2023-08-08T02:34:57;11.30;89.00
48994;DHT22;34804;49.214;12.276;2023-08-08T02:37:23;11.20;88.90
48994;DHT22;34804;49.214;12.276;2023-08-08T02:39:50;11.30;89.00
48994;DHT22;34804;49.214;12.276;2023-08-08T02:42:17;11.30;88.70
48994;DHT22;34804;49.214;12.276;2023-08-08T02:44:44;11.30;88.90
48994;DHT22;34804;49.214;12.276;2023-08-08T02:47:11;11.30;88.70
48994;DHT22;34804;49.214;12.276;2023-08-08T02:49:38;11.30;88.80
48994;DHT22;34804;49.214;12.276;2023-08-08T02:52:04;11.30;89.00
48994;DHT22;34804;49.214;12.276;2023-08-08T02:54:31;11.30;88.90
48994;DHT22;34804;49.214;12.276;2023-08-08T02:56:58;11.30;89.10
48994;DHT22;34804;49.214;12.276;2023-08-08T02:59:25;11.20;89.40
48994;DHT22;34804;49.214;12.276;2023-08-08T03:01:52;11.30;89.30
48994;DHT22;34804;49.214;12.276;2023-08-08T03:04:19;11.30;89.30
48994;DHT22;34804;49.214;12.276;2023-08-08T03:06:46;11.30;89.10
48994;DHT22;34804;49.214;12.276;2023-08-08T03:09:13;11.40;88.50
48994;DHT22;34804;49.214;12.276;2023-08-08T03:11:40;11.40;88.40
48994;DHT22;34804;49.214;12.276;2023-08-08T03:14:08;11.40;88.60
48994;DHT22;34804;49.214;12.276;2023-08-08T03:16:35;11.40;88.70
48994;DHT22;34804;49.214;12.276;2023-08-08T03:19:02;11.40;88.90
48994;DHT22;34804;49.214;12.276;2023-08-08T03:21:29;11.40;88.80
48994;DHT22;34804;49.214;12.276;2023-08-08T03:23:57;11.40;88.80
48994;DHT22;34804;49.214;12.276;2023-08-08T03:26:24;11.40;88.90
48994;DHT22;34804;49.214;12.276;2023-08-08T03:28:51;11.40;88.90
48994;DHT22;34804;49.214;12.276;2023-08-08T03:31:20;11.40;88.70
48994;DHT22;34804;49.214;12.276;2023-08-08T03:33:47;11.50;88.80
48994;DHT22;34804;49.214;12.276;2023-08-08T03:36:16;11.40;88.90
48994;DHT22;34804;49.214;12.276;2023-08-08T03:38:43;11.40;89.20
48994;DHT22;34804;49.214;12.276;2023-08-08T03:41:13;11.40;89.00
48994;DHT22;34804;49.214;12.276;2023-08-08T03:43:40;11.40;89.30
48994;DHT22;34804;49.214;12.276;2023-08-08T03:46:07;11.40;89.10
48994;DHT22;34804;49.214;12.276;2023-08-08T03:48:34;11.40;89.20
48994;DHT22;34804;49.214;12.276;2023-08-08T03:51:01;11.40;89.10
48994;DHT22;34804;49.214;12.276;2023-08-08T03:53:28;11.50;89.00
48994;DHT22;34804;49.214;12.276;2023-08-08T03:55:55;11.50;89.00
48994;DHT22;34804;49.214;12.276;2023-08-08T03:58:22;11.50;89.20
48994;DHT22;34804;49.214;12.276;2023-08-08T04:00:49;11.50;89.20
48994;DHT22;34804;49.214;12.276;2023-08-08T04:03:16;11.40;89.20
48994;DHT22;34804;49.214;12.276;2023-08-08T04:05:47;11.40;89.30
48994;DHT22;34804;49.214;12.276;2023-08-08T04:08:15;11.40;89.30
48994;DHT22;34804;49.214;12.276;2023-08-08T04:10:42;11.40;89.30
48994;DHT22;34804;49.214;12.276;2023-08-08T04:13:10;11.40;89.20
48994;DHT22;34804;49.214;12.276;2023-08-08T04:15:37;11.50;89.40
48994;DHT22;34804;49.214;12.276;2023-08-08T04:18:04;11.50;89.30
48994;DHT22;34804;49.214;12.276;2023-08-08T04:20:33;11.60;89.30
48994;DHT22;34804;49.214;12.276;2023-08-08T04:23:01;11.60;89.50
48994;DHT22;34804;49.214;12.276;2023-08-08T04:25:28;11.60;89.50
48994;DHT22;34804;49.214;12.276;2023-08-08T04:27:55;11.60;89.30
48994;DHT22;34804;49.214;12.276;2023-08-08T04:30:22;11.60;89.30
48994;DHT22;34804;49.214;12.276;2023-08-08T04:32:50;11.60;89.40
48994;DHT22;34804;49.214;12.276;2023-08-08T04:35:17;11.60;89.40
48994;DHT22;34804;49.214;12.276;2023-08-08T04:37:44;11.60;89.60
48994;DHT22;34804;49.214;12.276;2023-08-08T04:40:11;11.60;89.90
48994;DHT22;34804;49.214;12.276;2023-08-08T04:42:38;11.70;89.50
48994;DHT22;34804;49.214;12.276;2023-08-08T04:45:05;11.70;89.50
48994;DHT22;34804;49.214;12.276;2023-08-08T04:47:32;11.60;89.60
48994;DHT22;34804;49.214;12.276;2023-08-08T04:49:59;11.60;90.10
48994;DHT22;34804;49.214;12.276;2023-08-08T04:52:26;11.70;89.60
48994;DHT22;34804;49.214;12.276;2023-08-08T04:54:53;11.60;89.90
48994;DHT22;34804;49.214;12.276;2023-08-08T04:57:19;11.70;89.90
48994;DHT22;34804;49.214;12.276;2023-08-08T04:59:46;11.60;90.00
48994;DHT22;34804;49.214;12.276;2023-08-08T05:02:13;11.70;89.70
48994;DHT22;34804;49.214;12.276;2023-08-08T05:04:40;11.80;89.20
48994;DHT22;34804;49.214;12.276;2023-08-08T05:07:07;11.80;89.70
48994;DHT22;34804;49.214;12.276;2023-08-08T05:09:34;11.90;89.40
48994;DHT22;34804;49.214;12.276;2023-08-08T05:12:01;11.90;89.50
48994;DHT22;34804;49.214;12.276;2023-08-08T05:14:29;11.90;89.00
48994;DHT22;34804;49.214;12.276;2023-08-08T05:16:56;11.90;89.30
48994;DHT22;34804;49.214;12.276;2023-08-08T05:19:23;11.90;89.50
48994;DHT22;34804;49.214;12.276;2023-08-08T05:21:52;11.90;89.60
48994;DHT22;34804;49.214;12.276;2023-08-08T05:24:19;11.90;89.40
48994;DHT22;34804;49.214;12.276;2023-08-08T05:26:46;11.90;89.20
48994;DHT22;34804;49.214;12.276;2023-08-08T05:29:13;11.90;89.30
48994;DHT22;34804;49.214;12.276;2023-08-08T05:31:39;11.80;89.10
48994;DHT22;34804;49.214;12.276;2023-08-08T05:34:06;11.80;89.20
48994;DHT22;34804;49.214;12.276;2023-08-08T05:36:33;11.80;89.10
48994;DHT22;34804;49.214;12.276;2023-08-08T05:39:00;11.80;89.10
48994;DHT22;34804;49.214;12.276;2023-08-08T05:41:27;11.80;89.10
48994;DHT22;34804;49.214;12.276;2023-08-08T05:43:54;11.90;89.00
48994;DHT22;34804;49.214;12.276;2023-08-08T05:46:21;11.90;88.80
48994;DHT22;34804;49.214;12.276;2023-08-08T05:48:48;11.90;88.80
48994;DHT22;34804;49.214;12.276;2023-08-08T05:51:15;12.00;88.90
48994;DHT22;34804;49.214;12.276;2023-08-08T05:53:42;12.30;89.50
48994;DHT22;34804;49.214;12.276;2023-08-08T05:56:08;12.40;87.90
48994;DHT22;34804;49.214;12.276;2023-08-08T05:58:35;12.60;87.90
48994;DHT22;34804;49.214;12.276;2023-08-08T06:01:04;12.80;87.10
48994;DHT22;34804;49.214;12.276;2023-08-08T06:03:36;12.80;86.80
48994;DHT22;34804;49.214;12.276;2023-08-08T06:06:04;12.90;87.20
48994;DHT22;34804;49.214;12.276;2023-08-08T06:08:32;13.10;87.00
48994;DHT22;34804;49.214;12.276;2023-08-08T06:10:59;13.20;86.40
48994;DHT22;34804;49.214;12.276;2023-08-08T06:13:26;13.30;85.90
48994;DHT22;34804;49.214;12.276;2023-08-08T06:15:53;13.30;85.50
48994;DHT22;34804;49.214;12.276;2023-08-08T06:18:20;13.40;84.90
48994;DHT22;34804;49.214;12.276;2023-08-08T06:20:46;13.40;85.30
48994;DHT22;34804;49.214;12.276;2023-08-08T06:23:13;13.40;84.40
48994;DHT22;34804;49.214;12.276;2023-08-08T06:25:42;13.50;84.90
48994;DHT22;34804;49.214;12.276;2023-08-08T06:28:09;13.70;84.70
48994;DHT22;34804;49.214;12.276;2023-08-08T06:30:36;13.80;85.20
48994;DHT22;34804;49.214;12.276;2023-08-08T06:33:03;13.80;85.00
48994;DHT22;34804;49.214;12.276;2023-08-08T06:35:30;13.90;84.10
48994;DHT22;34804;49.214;12.276;2023-08-08T06:37:57;13.90;83.90
48994;DHT22;34804;49.214;12.276;2023-08-08T06:40:23;14.00;83.30
48994;DHT22;34804;49.214;12.276;2023-08-08T06:42:51;14.10;83.60
48994;DHT22;34804;49.214;12.276;2023-08-08T06:45:17;14.10;84.10
48994;DHT22;34804;49.214;12.276;2023-08-08T06:47:44;14.30;84.20
48994;DHT22;34804;49.214;12.276;2023-08-08T06:50:12;14.40;83.60
48994;DHT22;34804;49.214;12.276;2023-08-08T06:52:39;14.50;83.60
48994;DHT22;34804;49.214;12.276;2023-08-08T06:55:06;14.50;82.70
48994;DHT22;34804;49.214;12.276;2023-08-08T06:57:33;14.60;83.00
48994;DHT22;34804;49.214;12.276;2023-08-08T07:00:02;14.80;83.00
48994;DHT22;34804;49.214;12.276;2023-08-08T07:02:31;14.80;81.80
48994;DHT22;34804;49.214;12.276;2023-08-08T07:04:58;14.80;82.20
48994;DHT22;34804;49.214;12.276;2023-08-08T07:07:26;14.80;81.60
48994;DHT22;34804;49.214;12.276;2023-08-08T07:09:53;14.90;81.30
48994;DHT22;34804;49.214;12.276;2023-08-08T07:12:19;15.00;81.90
48994;DHT22;34804;49.214;12.276;2023-08-08T07:14:46;15.20;82.70
48994;DHT22;34804;49.214;12.276;2023-08-08T07:17:13;15.20;80.80
48994;DHT22;34804;49.214;12.276;2023-08-08T07:19:41;15.30;81.40
48994;DHT22;34804;49.214;12.276;2023-08-08T07:22:08;15.30;77.90
48994;DHT22;34804;49.214;12.276;2023-08-08T07:24:35;15.60;78.80
48994;DHT22;34804;49.214;12.276;2023-08-08T07:27:02;15.70;78.40
48994;DHT22;34804;49.214;12.276;2023-08-08T07:29:28;15.80;78.40
48994;DHT22;34804;49.214;12.276;2023-08-08T07:31:57;15.90;77.00
48994;DHT22;34804;49.214;12.276;2023-08-08T07:34:25;16.10;78.20
48994;DHT22;34804;49.214;12.276;2023-08-08T07:36:52;16.20;76.90
48994;DHT22;34804;49.214;12.276;2023-08-08T07:39:18;16.30;77.00
48994;DHT22;34804;49.214;12.276;2023-08-08T07:41:45;16.30;76.80
48994;DHT22;34804;49.214;12.276;2023-08-08T07:44:12;16.30;76.40
48994;DHT22;34804;49.214;12.276;2023-08-08T07:46:39;16.60;76.70
48994;DHT22;34804;49.214;12.276;2023-08-08T07:49:06;16.80;75.20
48994;DHT22;34804;49.214;12.276;2023-08-08T07:51:33;16.60;77.00
48994;DHT22;34804;49.214;12.276;2023-08-08T07:54:01;16.60;77.50
48994;DHT22;34804;49.214;12.276;2023-08-08T07:56:28;16.50;75.70
48994;DHT22;34804;49.214;12.276;2023-08-08T07:58:55;16.70;74.90
48994;DHT22;34804;49.214;12.276;2023-08-08T08:01:21;17.20;76.80
48994;DHT22;34804;49.214;12.276;2023-08-08T08:03:48;17.40;75.20
48994;DHT22;34804;49.214;12.276;2023-08-08T08:06:15;17.50;74.20
48994;DHT22;34804;49.214;12.276;2023-08-08T08:08:42;17.60;71.30
48994;DHT22;34804;49.214;12.276;2023-08-08T08:11:09;17.60;70.80
48994;DHT22;34804;49.214;12.276;2023-08-08T08:13:36;17.80;71.20
48994;DHT22;34804;49.214;12.276;2023-08-08T08:16:03;17.90;68.70
48994;DHT22;34804;49.214;12.276;2023-08-08T08:18:30;17.70;69.70
48994;DHT22;34804;49.214;12.276;2023-08-08T08:20:57;17.60;69.80
48994;DHT22;34804;49.214;12.276;2023-08-08T08:23:24;17.30;71.10
48994;DHT22;34804;49.214;12.276;2023-08-08T08:25:52;17.30;70.30
48994;DHT22;34804;49.214;12.276;2023-08-08T08:28:18;16.90;71.90
48994;DHT22;34804;49.214;12.276;2023-08-08T08:30:45;16.80;73.30
48994;DHT22;34804;49.214;12.276;2023-08-08T08:33:12;16.80;73.60
48994;DHT22;34804;49.214;12.276;2023-08-08T08:35:39;16.70;72.70
48994;DHT22;34804;49.214;12.276;2023-08-08T08:38:06;16.60;73.20
48994;DHT22;34804;49.214;12.276;2023-08-08T08:40:37;16.60;73.40
48994;DHT22;34804;49.214;12.276;2023-08-08T08:43:06;16.70;75.00
48994;DHT22;34804;49.214;12.276;2023-08-08T08:45:37;17.00;73.90
48994;DHT22;34804;49.214;12.276;2023-08-08T08:48:09;16.90;71.90
48994;DHT22;34804;49.214;12.276;2023-08-08T08:50:38;17.10;74.20
48994;DHT22;34804;49.214;12.276;2023-08-08T08:53:07;17.40;72.90
48994;DHT22;34804;49.214;12.276;2023-08-08T08:55:34;17.70;71.70
48994;DHT22;34804;49.214;12.276;2023-08-08T08:58:01;17.90;71.40
48994;DHT22;34804;49.214;12.276;2023-08-08T09:00:28;18.00;71.10
48994;DHT22;34804;49.214;12.276;2023-08-08T09:02:56;18.30;68.10
48994;DHT22;34804;49.214;12.276;2023-08-08T09:05:24;18.40;69.60
48994;DHT22;34804;49.214;12.276;2023-08-08T09:07:51;18.70;69.00
48994;DHT22;34804;49.214;12.276;2023-08-08T09:10:19;18.70;67.80
48994;DHT22;34804;49.214;12.276;2023-08-08T09:12:46;18.80;69.10
48994;DHT22;34804;49.214;12.276;2023-08-08T09:15:13;18.60;69.10
48994;DHT22;34804;49.214;12.276;2023-08-08T09:17:44;18.70;67.90
48994;DHT22;34804;49.214;12.276;2023-08-08T09:20:16;18.80;64.60
48994;DHT22;34804;49.214;12.276;2023-08-08T09:22:44;19.00;67.00
48994;DHT22;34804;49.214;12.276;2023-08-08T09:25:11;18.60;64.50
48994;DHT22;34804;49.214;12.276;2023-08-08T09:27:41;18.70;67.20
48994;DHT22;34804;49.214;12.276;2023-08-08T09:30:12;19.10;67.40
48994;DHT22;34804;49.214;12.276;2023-08-08T09:32:39;19.10;65.90
48994;DHT22;34804;49.214;12.276;2023-08-08T09:35:07;18.60;64.40
48994;DHT22;34804;49.214;12.276;2023-08-08T09:37:38;18.80;64.20
48994;DHT22;34804;49.214;12.276;2023-08-08T09:40:05;18.80;65.10
48994;DHT22;34804;49.214;12.276;2023-08-08T09:42:35;18.60;65.90
48994;DHT22;34804;49.214;12.276;2023-08-08T09:45:02;18.40;65.50
48994;DHT22;34804;49.214;12.276;2023-08-08T09:47:29;18.20;66.70
48994;DHT22;34804;49.214;12.276;2023-08-08T09:50:01;18.10;66.70
48994;DHT22;34804;49.214;12.276;2023-08-08T09:52:29;18.60;67.20
48994;DHT22;34804;49.214;12.276;2023-08-08T09:54:56;18.80;67.20
48994;DHT22;34804;49.214;12.276;2023-08-08T09:57:23;19.10;65.50
48994;DHT22;34804;49.214;12.276;2023-08-08T09:59:51;19.10;63.80
48994;DHT22;34804;49.214;12.276;2023-08-08T10:02:18;18.60;65.10
48994;DHT22;34804;49.214;12.276;2023-08-08T10:04:46;18.40;65.70
48994;DHT22;34804;49.214;12.276;2023-08-08T10:07:14;18.10;66.40
48994;DHT22;34804;49.214;12.276;2023-08-08T10:09:41;17.80;68.00
48994;DHT22;34804;49.214;12.276;2023-08-08T10:12:09;17.90;66.90
48994;DHT22;34804;49.214;12.276;2023-08-08T10:14:37;18.40;66.40
48994;DHT22;34804;49.214;12.276;2023-08-08T10:17:07;18.80;64.30
48994;DHT22;34804;49.214;12.276;2023-08-08T10:19:34;19.30;64.60
48994;DHT22;34804;49.214;12.276;2023-08-08T10:22:04;19.10;62.50
48994;DHT22;34804;49.214;12.276;2023-08-08T10:24:35;18.80;63.20
48994;DHT22;34804;49.214;12.276;2023-08-08T10:27:03;18.30;63.30
48994;DHT22;34804;49.214;12.276;2023-08-08T10:29:32;18.30;65.00
48994;DHT22;34804;49.214;12.276;2023-08-08T10:32:02;18.80;63.00
48994;DHT22;34804;49.214;12.276;2023-08-08T10:34:40;19.30;61.60
48994;DHT22;34804;49.214;12.276;2023-08-08T10:37:17;19.40;60.80
48994;DHT22;34804;49.214;12.276;2023-08-08T10:39:55;19.30;62.30
48994;DHT22;34804;49.214;12.276;2023-08-08T10:42:26;19.20;61.50
48994;DHT22;34804;49.214;12.276;2023-08-08T10:44:58;19.40;62.50
48994;DHT22;34804;49.214;12.276;2023-08-08T10:47:29;19.60;57.80
48994;DHT22;34804;49.214;12.276;2023-08-08T10:50:05;19.80;59.80
48994;DHT22;34804;49.214;12.276;2023-08-08T10:52:37;19.80;57.50
48994;DHT22;34804;49.214;12.276;2023-08-08T10:55:05;19.80;54.00
48994;DHT22;34804;49.214;12.276;2023-08-08T10:57:32;20.00;56.00
48994;DHT22;34804;49.214;12.276;2023-08-08T11:00:16;20.70;56.60
48994;DHT22;34804;49.214;12.276;2023-08-08T11:02:44;20.90;51.90
48994;DHT22;34804;49.214;12.276;2023-08-08T11:05:11;21.30;52.60
48994;DHT22;34804;49.214;12.276;2023-08-08T11:07:39;21.00;53.40
48994;DHT22;34804;49.214;12.276;2023-08-08T11:10:08;21.00;52.30
48994;DHT22;34804;49.214;12.276;2023-08-08T11:12:35;21.30;54.50
48994;DHT22;34804;49.214;12.276;2023-08-08T11:15:02;21.60;52.50
48994;DHT22;34804;49.214;12.276;2023-08-08T11:17:29;21.90;50.80
48994;DHT22;34804;49.214;12.276;2023-08-08T11:19:57;21.80;50.00
48994;DHT22;34804;49.214;12.276;2023-08-08T11:22:24;21.20;48.80
48994;DHT22;34804;49.214;12.276;2023-08-08T11:24:51;21.00;49.20
48994;DHT22;34804;49.214;12.276;2023-08-08T11:27:18;21.10;47.70
48994;DHT22;34804;49.214;12.276;2023-08-08T11:29:51;21.40;49.80
48994;DHT22;34804;49.214;12.276;2023-08-08T11:32:18;21.80;46.80
48994;DHT22;34804;49.214;12.276;2023-08-08T11:34:47;21.80;47.20
48994;DHT22;34804;49.214;12.276;2023-08-08T11:37:15;21.80;44.10
48994;DHT22;34804;49.214;12.276;2023-08-08T11:39:42;21.80;44.90
48994;DHT22;34804;49.214;12.276;2023-08-08T11:42:09;21.60;45.20
48994;DHT22;34804;49.214;12.276;2023-08-08T11:44:37;21.30;45.40
48994;DHT22;34804;49.214;12.276;2023-08-08T11:47:04;21.30;46.60
48994;DHT22;34804;49.214;12.276;2023-08-08T11:49:40;21.40;48.30
48994;DHT22;34804;49.214;12.276;2023-08-08T11:52:08;21.60;45.80
48994;DHT22;34804;49.214;12.276;2023-08-08T11:54:37;21.70;45.80
48994;DHT22;34804;49.214;12.276;2023-08-08T11:57:05;21.80;47.70
48994;DHT22;34804;49.214;12.276;2023-08-08T11:59:31;22.10;50.60
48994;DHT22;34804;49.214;12.276;2023-08-08T12:01:59;22.20;46.60
48994;DHT22;34804;49.214;12.276;2023-08-08T12:04:26;21.80;46.80
48994;DHT22;34804;49.214;12.276;2023-08-08T12:07:03;21.60;48.40
48994;DHT22;34804;49.214;12.276;2023-08-08T12:09:33;21.80;47.50
48994;DHT22;34804;49.214;12.276;2023-08-08T12:12:00;22.30;49.80
48994;DHT22;34804;49.214;12.276;2023-08-08T12:14:28;22.50;49.30
48994;DHT22;34804;49.214;12.276;2023-08-08T12:16:55;22.30;47.60
48994;DHT22;34804;49.214;12.276;2023-08-08T12:19:23;22.40;49.40
48994;DHT22;34804;49.214;12.276;2023-08-08T12:21:51;22.60;47.50
48994;DHT22;34804;49.214;12.276;2023-08-08T12:24:18;22.40;46.70
48994;DHT22;34804;49.214;12.276;2023-08-08T12:26:45;22.00;46.10
48994;DHT22;34804;49.214;12.276;2023-08-08T12:29:13;21.70;46.20
48994;DHT22;34804;49.214;12.276;2023-08-08T12:31:40;21.60;46.70
48994;DHT22;34804;49.214;12.276;2023-08-08T12:34:07;21.50;46.80
48994;DHT22;34804;49.214;12.276;2023-08-08T12:36:34;21.40;46.80
48994;DHT22;34804;49.214;12.276;2023-08-08T12:39:01;21.30;47.80
48994;DHT22;34804;49.214;12.276;2023-08-08T12:41:28;21.20;49.00
48994;DHT22;34804;49.214;12.276;2023-08-08T12:43:56;21.40;47.10
48994;DHT22;34804;49.214;12.276;2023-08-08T12:46:23;21.20;48.50
48994;DHT22;34804;49.214;12.276;2023-08-08T12:48:50;21.30;48.30
48994;DHT22;34804;49.214;12.276;2023-08-08T12:51:18;21.40;49.40
48994;DHT22;34804;49.214;12.276;2023-08-08T12:53:44;21.50;48.70
48994;DHT22;34804;49.214;12.276;2023-08-08T12:56:11;21.50;50.60
48994;DHT22;34804;49.214;12.276;2023-08-08T12:58:41;22.60;47.20
48994;DHT22;34804;49.214;12.276;2023-08-08T13:01:08;23.70;44.40
48994;DHT22;34804;49.214;12.276;2023-08-08T13:03:35;23.90;43.60
48994;DHT22;34804;49.214;12.276;2023-08-08T13:06:02;24.30;40.20
48994;DHT22;34804;49.214;12.276;2023-08-08T13:08:30;23.70;38.50
48994;DHT22;34804;49.214;12.276;2023-08-08T13:10:58;23.60;38.20
48994;DHT22;34804;49.214;12.276;2023-08-08T13:13:25;23.40;38.50
48994;DHT22;34804;49.214;12.276;2023-08-08T13:15:52;23.40;40.00
48994;DHT22;34804;49.214;12.276;2023-08-08T13:18:19;23.80;39.20
48994;DHT22;34804;49.214;12.276;2023-08-08T13:20:46;24.30;41.70
48994;DHT22;34804;49.214;12.276;2023-08-08T13:23:13;24.60;39.50
48994;DHT22;34804;49.214;12.276;2023-08-08T13:25:40;23.90;38.20
48994;DHT22;34804;49.214;12.276;2023-08-08T13:28:09;23.70;38.80
48994;DHT22;34804;49.214;12.276;2023-08-08T13:30:35;23.40;39.70
48994;DHT22;34804;49.214;12.276;2023-08-08T13:33:03;23.80;40.90
48994;DHT22;34804;49.214;12.276;2023-08-08T13:35:30;24.20;40.20
48994;DHT22;34804;49.214;12.276;2023-08-08T13:37:57;24.30;39.50
48994;DHT22;34804;49.214;12.276;2023-08-08T13:40:24;24.60;36.70
48994;DHT22;34804;49.214;12.276;2023-08-08T13:42:51;24.50;38.70
48994;DHT22;34804;49.214;12.276;2023-08-08T13:45:18;23.90;38.10
48994;DHT22;34804;49.214;12.276;2023-08-08T13:47:46;25.00;41.00
48994;DHT22;34804;49.214;12.276;2023-08-08T13:50:14;26.30;36.50
48994;DHT22;34804;49.214;12.276;2023-08-08T13:52:41;26.80;36.70
48994;DHT22;34804;49.214;12.276;2023-08-08T13:55:08;27.00;34.20
48994;DHT22;34804;49.214;12.276;2023-08-08T13:57:36;26.80;33.80
48994;DHT22;34804;49.214;12.276;2023-08-08T14:00:03;26.40;35.50
48994;DHT22;34804;49.214;12.276;2023-08-08T14:02:30;26.30;36.80
48994;DHT22;34804;49.214;12.276;2023-08-08T14:04:57;25.30;36.00
48994;DHT22;34804;49.214;12.276;2023-08-08T14:07:24;25.30;39.30
48994;DHT22;34804;49.214;12.276;2023-08-08T14:09:51;24.30;37.00
48994;DHT22;34804;49.214;12.276;2023-08-08T14:12:18;24.80;37.70
48994;DHT22;34804;49.214;12.276;2023-08-08T14:14:45;25.30;39.20
48994;DHT22;34804;49.214;12.276;2023-08-08T14:17:11;26.30;37.10
48994;DHT22;34804;49.214;12.276;2023-08-08T14:19:38;26.20;38.30
48994;DHT22;34804;49.214;12.276;2023-08-08T14:22:05;25.90;38.40
48994;DHT22;34804;49.214;12.276;2023-08-08T14:24:33;25.80;39.30
48994;DHT22;34804;49.214;12.276;2023-08-08T14:27:00;25.10;38.90
48994;DHT22;34804;49.214;12.276;2023-08-08T14:29:27;25.30;41.50
48994;DHT22;34804;49.214;12.276;2023-08-08T14:31:54;25.80;37.90
48994;DHT22;34804;49.214;12.276;2023-08-08T14:34:33;25.30;36.20
48994;DHT22;34804;49.214;12.276;2023-08-08T14:37:01;25.10;39.70
48994;DHT22;34804;49.214;12.276;2023-08-08T14:39:28;25.10;36.00
48994;DHT22;34804;49.214;12.276;2023-08-08T14:41:56;25.30;35.50
48994;DHT22;34804;49.214;12.276;2023-08-08T14:44:23;25.10;35.80
48994;DHT22;34804;49.214;12.276;2023-08-08T14:46:50;25.30;34.80
48994;DHT22;34804;49.214;12.276;2023-08-08T14:49:17;26.10;33.70
48994;DHT22;34804;49.214;12.276;2023-08-08T14:51:44;25.40;36.30
48994;DHT22;34804;49.214;12.276;2023-08-08T14:54:11;25.60;33.70
48994;DHT22;34804;49.214;12.276;2023-08-08T14:56:38;25.80;33.20
48994;DHT22;34804;49.214;12.276;2023-08-08T14:59:05;26.00;35.50
48994;DHT22;34804;49.214;12.276;2023-08-08T15:01:31;25.60;34.20
48994;DHT22;34804;49.214;12.276;2023-08-08T15:03:58;25.10;34.70
48994;DHT22;34804;49.214;12.276;2023-08-08T15:06:25;24.80;35.40
48994;DHT22;34804;49.214;12.276;2023-08-08T15:08:53;25.20;34.80
48994;DHT22;34804;49.214;12.276;2023-08-08T15:11:20;25.00;34.70
48994;DHT22;34804;49.214;12.276;2023-08-08T15:13:46;25.30;36.30
48994;DHT22;34804;49.214;12.276;2023-08-08T15:16:13;25.60;35.60
48994;DHT22;34804;49.214;12.276;2023-08-08T15:18:41;25.40;35.50